sensor_id;sensor_type;location;lat;lon;timestamp;pressure;altitude;pressure_sealevel;temperature;humidity
52653;BME280;39353;42.864;12.014;2022-07-03T00:01:49;97681.59;;;28.66;40.27
52653;BME280;39353;42.864;12.014;2022-07-03T00:07:21;97685.02;;;28.67;40.43
52653;BME280;39353;42.864;12.014;2022-07-03T00:09:48;97683.80;;;28.68;40.34
52653;BME280;39353;42.864;12.014;2022-07-03T00:15:39;97688.84;;;28.70;40.40
52653;BME280;39353;42.864;12.014;2022-07-03T00:18:06;97691.98;;;28.70;40.24
52653;BME280;39353;42.864;12.014;2022-07-03T00:20:41;97694.23;;;28.70;40.34
52653;BME280;39353;42.864;12.014;2022-07-03T00:24:28;97695.64;;;28.70;40.31
52653;BME280;39353;42.864;12.014;2022-07-03T00:27:36;97704.45;;;28.68;40.45
52653;BME280;39353;42.864;12.014;2022-07-03T00:30:25;97702.46;;;28.66;40.41
52653;BME280;39353;42.864;12.014;2022-07-03T00:33:12;97705.56;;;28.66;40.49
52653;BME280;39353;42.864;12.014;2022-07-03T00:36:16;97702.73;;;28.65;40.40
52653;BME280;39353;42.864;12.014;2022-07-03T00:39:05;97697.16;;;28.64;40.33
52653;BME280;39353;42.864;12.014;2022-07-03T00:42:01;97699.52;;;28.63;40.44
52653;BME280;39353;42.864;12.014;2022-07-03T00:44:48;97696.77;;;28.63;40.49
52653;BME280;39353;42.864;12.014;2022-07-03T00:47:36;97698.42;;;28.62;40.58
52653;BME280;39353;42.864;12.014;2022-07-03T00:50:08;97701.19;;;28.63;40.48
52653;BME280;39353;42.864;12.014;2022-07-03T00:53:26;97699.69;;;28.60;40.48
52653;BME280;39353;42.864;12.014;2022-07-03T00:59:57;97701.52;;;28.58;40.58
52653;BME280;39353;42.864;12.014;2022-07-03T01:03:06;97696.20;;;28.54;40.68
52653;BME280;39353;42.864;12.014;2022-07-03T01:05:42;97693.70;;;28.53;40.70
52653;BME280;39353;42.864;12.014;2022-07-03T01:08:51;97684.82;;;28.50;40.76
52653;BME280;39353;42.864;12.014;2022-07-03T01:14:43;97689.34;;;28.50;40.61
52653;BME280;39353;42.864;12.014;2022-07-03T01:17:47;97693.36;;;28.48;40.78
52653;BME280;39353;42.864;12.014;2022-07-03T01:27:03;97682.42;;;28.42;40.85
52653;BME280;39353;42.864;12.014;2022-07-03T01:29:51;97677.08;;;28.43;40.78
52653;BME280;39353;42.864;12.014;2022-07-03T01:32:24;97672.13;;;28.44;40.70
52653;BME280;39353;42.864;12.014;2022-07-03T01:34:57;97675.15;;;28.44;40.73
52653;BME280;39353;42.864;12.014;2022-07-03T01:37:30;97674.50;;;28.45;40.76
52653;BME280;39353;42.864;12.014;2022-07-03T01:40:02;97672.02;;;28.46;40.77
52653;BME280;39353;42.864;12.014;2022-07-03T01:43:07;97675.10;;;28.47;40.75
52653;BME280;39353;42.864;12.014;2022-07-03T01:45:55;97672.61;;;28.49;40.65
52653;BME280;39353;42.864;12.014;2022-07-03T01:48:23;97672.61;;;28.50;40.67
52653;BME280;39353;42.864;12.014;2022-07-03T01:53:57;97670.75;;;28.52;40.72
52653;BME280;39353;42.864;12.014;2022-07-03T02:03:39;97664.65;;;28.41;40.88
52653;BME280;39353;42.864;12.014;2022-07-03T02:09:40;97666.28;;;28.35;41.00
52653;BME280;39353;42.864;12.014;2022-07-03T02:15:43;97668.63;;;28.25;41.00
52653;BME280;39353;42.864;12.014;2022-07-03T02:24:46;97666.15;;;28.12;41.19
52653;BME280;39353;42.864;12.014;2022-07-03T02:27:42;97665.89;;;28.08;41.28
52653;BME280;39353;42.864;12.014;2022-07-03T02:39:18;97667.39;;;27.98;41.08
52653;BME280;39353;42.864;12.014;2022-07-03T02:45:11;97667.48;;;27.93;41.31
52653;BME280;39353;42.864;12.014;2022-07-03T02:48:00;97667.22;;;27.92;41.37
52653;BME280;39353;42.864;12.014;2022-07-03T02:53:38;97664.36;;;27.85;41.53
52653;BME280;39353;42.864;12.014;2022-07-03T03:05:43;97662.77;;;27.77;41.87
52653;BME280;39353;42.864;12.014;2022-07-03T03:09:10;97666.97;;;27.75;41.71
52653;BME280;39353;42.864;12.014;2022-07-03T03:15:03;97665.21;;;27.69;41.70
52653;BME280;39353;42.864;12.014;2022-07-03T03:17:43;97663.49;;;27.67;41.57
52653;BME280;39353;42.864;12.014;2022-07-03T03:20:51;97665.38;;;27.67;41.49
52653;BME280;39353;42.864;12.014;2022-07-03T03:23:48;97667.47;;;27.67;41.38
52653;BME280;39353;42.864;12.014;2022-07-03T03:26:21;97660.52;;;27.66;41.73
52653;BME280;39353;42.864;12.014;2022-07-03T03:29:07;97663.88;;;27.63;41.73
52653;BME280;39353;42.864;12.014;2022-07-03T03:31:55;97663.80;;;27.62;41.94
52653;BME280;39353;42.864;12.014;2022-07-03T03:34:25;97662.73;;;27.58;42.09
52653;BME280;39353;42.864;12.014;2022-07-03T03:37:11;97660.13;;;27.56;42.06
52653;BME280;39353;42.864;12.014;2022-07-03T03:43:02;97664.14;;;27.53;41.94
52653;BME280;39353;42.864;12.014;2022-07-03T03:46:06;97661.98;;;27.52;41.98
52653;BME280;39353;42.864;12.014;2022-07-03T03:49:10;97660.98;;;27.51;41.88
52653;BME280;39353;42.864;12.014;2022-07-03T03:51:54;97660.05;;;27.51;41.77
52653;BME280;39353;42.864;12.014;2022-07-03T03:54:40;97663.08;;;27.49;41.94
52653;BME280;39353;42.864;12.014;2022-07-03T03:57:26;97661.48;;;27.47;42.14
52653;BME280;39353;42.864;12.014;2022-07-03T03:59:55;97659.80;;;27.45;42.30
52653;BME280;39353;42.864;12.014;2022-07-03T04:02:23;97658.58;;;27.43;42.30
52653;BME280;39353;42.864;12.014;2022-07-03T04:04:50;97661.34;;;27.44;42.46
52653;BME280;39353;42.864;12.014;2022-07-03T04:10:59;97656.98;;;27.43;42.18
52653;BME280;39353;42.864;12.014;2022-07-03T04:14:22;97662.28;;;27.41;42.18
52653;BME280;39353;42.864;12.014;2022-07-03T04:17:07;97663.23;;;27.41;42.46
52653;BME280;39353;42.864;12.014;2022-07-03T04:32:31;97667.02;;;27.43;42.73
52653;BME280;39353;42.864;12.014;2022-07-03T04:38:02;97673.13;;;27.43;43.89
52653;BME280;39353;42.864;12.014;2022-07-03T04:40:29;97671.70;;;27.44;44.02
52653;BME280;39353;42.864;12.014;2022-07-03T04:43:17;97668.39;;;27.43;44.41
52653;BME280;39353;42.864;12.014;2022-07-03T04:48:51;97668.31;;;27.39;45.17
52653;BME280;39353;42.864;12.014;2022-07-03T04:54:43;97668.25;;;27.36;45.37
52653;BME280;39353;42.864;12.014;2022-07-03T04:57:11;97673.77;;;27.36;45.40
52653;BME280;39353;42.864;12.014;2022-07-03T04:59:56;97679.56;;;27.38;45.57
52653;BME280;39353;42.864;12.014;2022-07-03T05:02:42;97676.93;;;27.40;45.40
52653;BME280;39353;42.864;12.014;2022-07-03T05:08:50;97675.13;;;27.43;45.43
52653;BME280;39353;42.864;12.014;2022-07-03T05:17:07;97679.58;;;27.42;45.56
52653;BME280;39353;42.864;12.014;2022-07-03T05:20:14;97676.60;;;27.43;45.52
52653;BME280;39353;42.864;12.014;2022-07-03T05:23:02;97683.59;;;27.47;45.61
52653;BME280;39353;42.864;12.014;2022-07-03T05:25:48;97682.36;;;27.49;45.60
52653;BME280;39353;42.864;12.014;2022-07-03T05:28:15;97682.27;;;27.54;45.37
52653;BME280;39353;42.864;12.014;2022-07-03T05:30:43;97683.98;;;27.60;45.50
52653;BME280;39353;42.864;12.014;2022-07-03T05:33:10;97686.30;;;27.64;45.56
52653;BME280;39353;42.864;12.014;2022-07-03T05:36:14;97685.56;;;27.69;45.65
52653;BME280;39353;42.864;12.014;2022-07-03T05:39:18;97682.77;;;27.74;45.52
52653;BME280;39353;42.864;12.014;2022-07-03T05:42:20;97684.17;;;27.77;45.27
52653;BME280;39353;42.864;12.014;2022-07-03T05:44:47;97685.95;;;27.80;45.26
52653;BME280;39353;42.864;12.014;2022-07-03T05:47:33;97691.27;;;27.83;45.34
52653;BME280;39353;42.864;12.014;2022-07-03T05:50:36;97694.38;;;27.87;45.28
52653;BME280;39353;42.864;12.014;2022-07-03T05:53:03;97695.20;;;27.86;45.17
52653;BME280;39353;42.864;12.014;2022-07-03T05:55:30;97702.33;;;27.89;45.09
52653;BME280;39353;42.864;12.014;2022-07-03T06:01:01;97701.36;;;27.95;45.15
52653;BME280;39353;42.864;12.014;2022-07-03T06:06:57;97699.98;;;28.05;45.01
52653;BME280;39353;42.864;12.014;2022-07-03T06:10:00;97698.46;;;28.10;44.76
52653;BME280;39353;42.864;12.014;2022-07-03T06:15:50;97705.46;;;28.22;44.71
52653;BME280;39353;42.864;12.014;2022-07-03T06:24:43;97711.77;;;28.37;44.28
52653;BME280;39353;42.864;12.014;2022-07-03T06:27:29;97710.32;;;28.31;44.39
52653;BME280;39353;42.864;12.014;2022-07-03T06:30:14;97716.39;;;28.34;44.54
52653;BME280;39353;42.864;12.014;2022-07-03T06:33:00;97715.80;;;28.37;44.90
52653;BME280;39353;42.864;12.014;2022-07-03T06:35:27;97718.31;;;28.29;44.49
52653;BME280;39353;42.864;12.014;2022-07-03T06:41:52;97718.23;;;28.38;44.91
52653;BME280;39353;42.864;12.014;2022-07-03T06:47:42;97721.53;;;28.53;44.53
52653;BME280;39353;42.864;12.014;2022-07-03T06:50:28;97724.14;;;28.58;44.66
52653;BME280;39353;42.864;12.014;2022-07-03T06:56:00;97716.77;;;28.66;44.10
52653;BME280;39353;42.864;12.014;2022-07-03T07:03:04;97712.00;;;28.63;43.73
52653;BME280;39353;42.864;12.014;2022-07-03T07:05:49;97716.33;;;28.65;43.72
52653;BME280;39353;42.864;12.014;2022-07-03T07:08:35;97715.61;;;28.67;43.72
52653;BME280;39353;42.864;12.014;2022-07-03T07:13:47;97719.03;;;28.64;43.63
52653;BME280;39353;42.864;12.014;2022-07-03T07:16:52;97713.96;;;28.68;43.65
52653;BME280;39353;42.864;12.014;2022-07-03T07:19:38;97710.23;;;28.75;43.82
52653;BME280;39353;42.864;12.014;2022-07-03T07:25:50;97703.97;;;28.85;43.05
52653;BME280;39353;42.864;12.014;2022-07-03T07:37:28;97710.44;;;28.98;42.65
52653;BME280;39353;42.864;12.014;2022-07-03T07:39:56;97704.80;;;29.04;42.67
52653;BME280;39353;42.864;12.014;2022-07-03T07:42:23;97704.70;;;29.07;42.47
52653;BME280;39353;42.864;12.014;2022-07-03T07:45:10;97699.17;;;29.09;42.30
52653;BME280;39353;42.864;12.014;2022-07-03T07:47:38;97697.57;;;29.10;42.34
52653;BME280;39353;42.864;12.014;2022-07-03T07:50:24;97700.40;;;29.11;42.12
52653;BME280;39353;42.864;12.014;2022-07-03T07:53:10;97701.61;;;29.13;42.10
52653;BME280;39353;42.864;12.014;2022-07-03T08:05:28;97702.23;;;29.25;41.50
52653;BME280;39353;42.864;12.014;2022-07-03T08:10:55;97699.05;;;29.28;41.15
52653;BME280;39353;42.864;12.014;2022-07-03T08:13:23;97699.39;;;29.30;41.35
52653;BME280;39353;42.864;12.014;2022-07-03T08:16:27;97700.50;;;29.36;41.34
52653;BME280;39353;42.864;12.014;2022-07-03T08:22:36;97702.07;;;29.41;41.31
52653;BME280;39353;42.864;12.014;2022-07-03T08:28:26;97701.29;;;29.44;41.06
52653;BME280;39353;42.864;12.014;2022-07-03T08:31:30;97704.44;;;29.46;41.06
52653;BME280;39353;42.864;12.014;2022-07-03T08:34:16;97708.14;;;29.46;41.14
52653;BME280;39353;42.864;12.014;2022-07-03T08:37:02;97709.24;;;29.50;40.96
52653;BME280;39353;42.864;12.014;2022-07-03T08:42:55;97705.70;;;29.51;40.91
52653;BME280;39353;42.864;12.014;2022-07-03T08:45:42;97705.30;;;29.52;40.86
52653;BME280;39353;42.864;12.014;2022-07-03T08:48:47;97708.13;;;29.55;40.55
52653;BME280;39353;42.864;12.014;2022-07-03T08:55:17;97709.27;;;29.63;39.94
52653;BME280;39353;42.864;12.014;2022-07-03T08:58:05;97709.83;;;29.65;39.90
52653;BME280;39353;42.864;12.014;2022-07-03T09:00:34;97704.96;;;29.69;39.54
52653;BME280;39353;42.864;12.014;2022-07-03T09:03:20;97698.15;;;29.69;39.70
52653;BME280;39353;42.864;12.014;2022-07-03T09:06:27;97690.63;;;29.71;39.58
52653;BME280;39353;42.864;12.014;2022-07-03T09:09:03;97693.38;;;29.72;39.61
52653;BME280;39353;42.864;12.014;2022-07-03T09:14:52;97700.09;;;29.77;39.25
52653;BME280;39353;42.864;12.014;2022-07-03T09:17:19;97701.58;;;29.78;39.27
52653;BME280;39353;42.864;12.014;2022-07-03T09:20:07;97697.20;;;29.77;39.50
52653;BME280;39353;42.864;12.014;2022-07-03T09:25:56;97692.04;;;29.80;40.31
52653;BME280;39353;42.864;12.014;2022-07-03T09:28:45;97689.48;;;29.82;40.27
52653;BME280;39353;42.864;12.014;2022-07-03T09:31:17;97694.63;;;29.85;40.47
52653;BME280;39353;42.864;12.014;2022-07-03T09:34:04;97694.95;;;29.86;40.43
52653;BME280;39353;42.864;12.014;2022-07-03T09:39:37;97693.90;;;29.88;39.10
52653;BME280;39353;42.864;12.014;2022-07-03T09:45:17;97697.92;;;29.89;38.23
52653;BME280;39353;42.864;12.014;2022-07-03T09:50:48;97691.52;;;29.92;36.88
52653;BME280;39353;42.864;12.014;2022-07-03T09:53:55;97689.69;;;29.89;36.56
52653;BME280;39353;42.864;12.014;2022-07-03T10:12:25;97665.17;;;29.92;36.02
52653;BME280;39353;42.864;12.014;2022-07-03T10:21:52;97663.85;;;30.00;34.98
52653;BME280;39353;42.864;12.014;2022-07-03T10:24:39;97659.40;;;30.05;34.12
52653;BME280;39353;42.864;12.014;2022-07-03T10:27:29;97652.67;;;30.10;33.93
52653;BME280;39353;42.864;12.014;2022-07-03T10:30:16;97648.73;;;30.11;33.75
52653;BME280;39353;42.864;12.014;2022-07-03T10:33:02;97642.52;;;30.14;33.63
52653;BME280;39353;42.864;12.014;2022-07-03T10:35:53;97645.16;;;30.19;33.38
52653;BME280;39353;42.864;12.014;2022-07-03T10:42:27;97639.21;;;30.23;33.25
52653;BME280;39353;42.864;12.014;2022-07-03T10:45:16;97641.96;;;30.28;33.40
52653;BME280;39353;42.864;12.014;2022-07-03T10:48:01;97639.96;;;30.30;33.15
52653;BME280;39353;42.864;12.014;2022-07-03T10:50:46;97630.80;;;30.33;32.56
52653;BME280;39353;42.864;12.014;2022-07-03T10:53:23;97628.07;;;30.36;32.25
52653;BME280;39353;42.864;12.014;2022-07-03T11:05:36;97615.61;;;30.65;31.84
52653;BME280;39353;42.864;12.014;2022-07-03T11:11:47;97612.31;;;30.84;31.75
52653;BME280;39353;42.864;12.014;2022-07-03T11:18:33;97615.10;;;31.07;30.44
52653;BME280;39353;42.864;12.014;2022-07-03T11:21:55;97614.23;;;31.19;30.00
52653;BME280;39353;42.864;12.014;2022-07-03T11:24:47;97612.59;;;31.23;29.98
52653;BME280;39353;42.864;12.014;2022-07-03T11:27:23;97610.90;;;31.31;29.42
52653;BME280;39353;42.864;12.014;2022-07-03T11:29:55;97606.14;;;31.32;29.40
52653;BME280;39353;42.864;12.014;2022-07-03T11:38:33;97593.36;;;31.44;28.96
52653;BME280;39353;42.864;12.014;2022-07-03T11:41:07;97597.39;;;31.45;28.87
52653;BME280;39353;42.864;12.014;2022-07-03T11:43:56;97595.11;;;31.47;29.08
52653;BME280;39353;42.864;12.014;2022-07-03T11:47:00;97588.29;;;31.51;28.92
52653;BME280;39353;42.864;12.014;2022-07-03T11:49:28;97586.27;;;31.59;28.15
52653;BME280;39353;42.864;12.014;2022-07-03T12:00:54;97577.30;;;31.66;27.72
52653;BME280;39353;42.864;12.014;2022-07-03T12:03:25;97572.27;;;31.69;27.43
52653;BME280;39353;42.864;12.014;2022-07-03T12:18:05;97558.91;;;31.76;27.98
52653;BME280;39353;42.864;12.014;2022-07-03T12:20:33;97556.04;;;31.75;27.50
52653;BME280;39353;42.864;12.014;2022-07-03T12:23:44;97552.14;;;31.79;27.53
52653;BME280;39353;42.864;12.014;2022-07-03T12:26:48;97554.67;;;31.85;27.79
52653;BME280;39353;42.864;12.014;2022-07-03T12:32:22;97556.37;;;31.94;27.17
52653;BME280;39353;42.864;12.014;2022-07-03T12:37:54;97554.70;;;31.95;27.94
52653;BME280;39353;42.864;12.014;2022-07-03T12:44:22;97556.14;;;31.83;28.18
52653;BME280;39353;42.864;12.014;2022-07-03T12:47:08;97557.29;;;31.77;28.34
52653;BME280;39353;42.864;12.014;2022-07-03T12:50:14;97546.73;;;31.73;27.81
52653;BME280;39353;42.864;12.014;2022-07-03T12:56:07;97547.63;;;31.68;27.87
52653;BME280;39353;42.864;12.014;2022-07-03T12:58:40;97544.14;;;31.70;27.74
52653;BME280;39353;42.864;12.014;2022-07-03T13:08:37;97530.59;;;31.62;28.01
52653;BME280;39353;42.864;12.014;2022-07-03T13:15:07;97525.52;;;31.67;26.86
52653;BME280;39353;42.864;12.014;2022-07-03T13:23:45;97512.98;;;32.11;26.16
52653;BME280;39353;42.864;12.014;2022-07-03T13:29:38;97508.77;;;31.97;27.08
52653;BME280;39353;42.864;12.014;2022-07-03T13:32:09;97510.80;;;31.92;27.23
52653;BME280;39353;42.864;12.014;2022-07-03T13:35:14;97505.12;;;31.86;27.18
52653;BME280;39353;42.864;12.014;2022-07-03T13:38:17;97501.52;;;31.82;27.19
52653;BME280;39353;42.864;12.014;2022-07-03T13:40:44;97500.41;;;31.81;27.08
52653;BME280;39353;42.864;12.014;2022-07-03T13:43:30;97495.40;;;31.79;27.51
52653;BME280;39353;42.864;12.014;2022-07-03T13:45:57;97495.34;;;31.79;27.46
52653;BME280;39353;42.864;12.014;2022-07-03T13:48:43;97495.66;;;31.79;27.37
52653;BME280;39353;42.864;12.014;2022-07-03T13:51:28;97492.09;;;31.77;27.50
52653;BME280;39353;42.864;12.014;2022-07-03T13:59:46;97487.52;;;31.67;27.97
52653;BME280;39353;42.864;12.014;2022-07-03T14:02:15;97481.17;;;31.65;27.94
52653;BME280;39353;42.864;12.014;2022-07-03T14:04:59;97477.42;;;31.64;27.63
52653;BME280;39353;42.864;12.014;2022-07-03T14:08:22;97476.21;;;31.64;27.53
52653;BME280;39353;42.864;12.014;2022-07-03T14:11:08;97471.73;;;31.63;27.75
52653;BME280;39353;42.864;12.014;2022-07-03T14:13:35;97470.35;;;31.63;27.50
52653;BME280;39353;42.864;12.014;2022-07-03T14:16:03;97464.80;;;31.62;27.59
52653;BME280;39353;42.864;12.014;2022-07-03T14:18:30;97456.67;;;31.62;27.46
52653;BME280;39353;42.864;12.014;2022-07-03T14:21:15;97459.69;;;31.63;27.36
52653;BME280;39353;42.864;12.014;2022-07-03T14:23:42;97457.83;;;31.65;27.55
52653;BME280;39353;42.864;12.014;2022-07-03T14:26:11;97456.81;;;31.67;27.10
52653;BME280;39353;42.864;12.014;2022-07-03T14:29:15;97451.80;;;31.67;27.41
52653;BME280;39353;42.864;12.014;2022-07-03T14:32:19;97451.97;;;31.67;27.70
52653;BME280;39353;42.864;12.014;2022-07-03T14:35:14;97450.37;;;31.66;27.81
52653;BME280;39353;42.864;12.014;2022-07-03T14:38:19;97445.78;;;31.65;27.96
52653;BME280;39353;42.864;12.014;2022-07-03T14:40:46;97440.07;;;31.65;27.95
52653;BME280;39353;42.864;12.014;2022-07-03T14:43:49;97439.77;;;31.67;27.80
52653;BME280;39353;42.864;12.014;2022-07-03T14:46:34;97446.12;;;31.69;27.50
52653;BME280;39353;42.864;12.014;2022-07-03T14:49:21;97449.98;;;31.73;27.49
52653;BME280;39353;42.864;12.014;2022-07-03T14:51:48;97445.20;;;31.74;27.53
52653;BME280;39353;42.864;12.014;2022-07-03T14:54:36;97440.95;;;31.73;27.75
52653;BME280;39353;42.864;12.014;2022-07-03T15:00:33;97437.41;;;31.76;27.80
52653;BME280;39353;42.864;12.014;2022-07-03T15:03:30;97432.92;;;31.75;27.51
52653;BME280;39353;42.864;12.014;2022-07-03T15:06:17;97429.77;;;31.75;28.00
52653;BME280;39353;42.864;12.014;2022-07-03T15:09:29;97427.21;;;31.75;27.76
52653;BME280;39353;42.864;12.014;2022-07-03T15:12:20;97426.55;;;31.75;28.27
52653;BME280;39353;42.864;12.014;2022-07-03T15:14:58;97429.38;;;31.74;28.06
52653;BME280;39353;42.864;12.014;2022-07-03T15:17:46;97423.96;;;31.71;28.16
52653;BME280;39353;42.864;12.014;2022-07-03T15:20:17;97427.23;;;31.70;28.29
52653;BME280;39353;42.864;12.014;2022-07-03T15:23:05;97422.52;;;31.70;28.07
52653;BME280;39353;42.864;12.014;2022-07-03T15:43:12;97401.11;;;31.63;28.22
52653;BME280;39353;42.864;12.014;2022-07-03T15:49:31;97402.11;;;31.63;28.42
52653;BME280;39353;42.864;12.014;2022-07-03T15:52:20;97407.87;;;31.61;28.48
52653;BME280;39353;42.864;12.014;2022-07-03T15:55:09;97401.51;;;31.59;28.28
52653;BME280;39353;42.864;12.014;2022-07-03T16:01:46;97401.36;;;31.62;30.32
52653;BME280;39353;42.864;12.014;2022-07-03T16:11:36;97396.52;;;31.70;33.01
52653;BME280;39353;42.864;12.014;2022-07-03T16:14:22;97394.63;;;31.71;33.26
52653;BME280;39353;42.864;12.014;2022-07-03T16:17:11;97394.11;;;31.73;34.29
52653;BME280;39353;42.864;12.014;2022-07-03T16:20:16;97397.73;;;31.76;34.57
52653;BME280;39353;42.864;12.014;2022-07-03T16:25:52;97399.55;;;31.77;34.57
52653;BME280;39353;42.864;12.014;2022-07-03T16:28:23;97401.34;;;31.73;35.22
52653;BME280;39353;42.864;12.014;2022-07-03T16:31:11;97404.86;;;31.74;35.18
52653;BME280;39353;42.864;12.014;2022-07-03T16:40:53;97404.84;;;31.82;34.69
52653;BME280;39353;42.864;12.014;2022-07-03T16:47:08;97411.44;;;31.88;34.63
52653;BME280;39353;42.864;12.014;2022-07-03T16:50:16;97408.33;;;31.94;34.57
52653;BME280;39353;42.864;12.014;2022-07-03T16:53:20;97414.14;;;31.98;34.12
52653;BME280;39353;42.864;12.014;2022-07-03T16:56:26;97407.56;;;31.97;34.19
52653;BME280;39353;42.864;12.014;2022-07-03T16:59:13;97414.48;;;32.00;34.31
52653;BME280;39353;42.864;12.014;2022-07-03T17:01:59;97414.63;;;31.99;34.23
52653;BME280;39353;42.864;12.014;2022-07-03T17:04:47;97416.15;;;31.97;34.23
52653;BME280;39353;42.864;12.014;2022-07-03T17:07:34;97410.66;;;31.97;34.35
52653;BME280;39353;42.864;12.014;2022-07-03T17:10:03;97411.90;;;31.99;33.87
52653;BME280;39353;42.864;12.014;2022-07-03T17:15:19;97419.27;;;32.00;34.02
52653;BME280;39353;42.864;12.014;2022-07-03T17:17:54;97423.27;;;32.04;33.77
52653;BME280;39353;42.864;12.014;2022-07-03T17:20:45;97423.67;;;32.06;33.72
52653;BME280;39353;42.864;12.014;2022-07-03T17:23:16;97424.79;;;32.02;34.06
52653;BME280;39353;42.864;12.014;2022-07-03T17:26:24;97425.05;;;31.96;34.02
52653;BME280;39353;42.864;12.014;2022-07-03T17:28:58;97424.08;;;31.95;34.32
52653;BME280;39353;42.864;12.014;2022-07-03T17:31:45;97421.19;;;31.98;34.02
52653;BME280;39353;42.864;12.014;2022-07-03T17:34:49;97426.52;;;31.98;34.13
52653;BME280;39353;42.864;12.014;2022-07-03T17:40:44;97431.23;;;31.95;34.49
52653;BME280;39353;42.864;12.014;2022-07-03T17:44:06;97425.48;;;31.96;34.81
52653;BME280;39353;42.864;12.014;2022-07-03T17:47:13;97430.48;;;31.99;34.66
52653;BME280;39353;42.864;12.014;2022-07-03T17:50:01;97429.77;;;32.00;34.89
52653;BME280;39353;42.864;12.014;2022-07-03T17:52:47;97435.06;;;32.02;34.59
52653;BME280;39353;42.864;12.014;2022-07-03T17:55:35;97432.88;;;32.07;34.54
52653;BME280;39353;42.864;12.014;2022-07-03T17:58:22;97435.98;;;32.11;34.42
52653;BME280;39353;42.864;12.014;2022-07-03T18:01:08;97442.16;;;32.13;34.25
52653;BME280;39353;42.864;12.014;2022-07-03T18:04:11;97444.05;;;32.13;34.54
52653;BME280;39353;42.864;12.014;2022-07-03T18:07:21;97441.71;;;32.13;34.81
52653;BME280;39353;42.864;12.014;2022-07-03T18:10:18;97444.09;;;32.11;34.83
52653;BME280;39353;42.864;12.014;2022-07-03T18:18:40;97452.05;;;31.98;34.84
52653;BME280;39353;42.864;12.014;2022-07-03T18:24:38;97457.92;;;31.98;34.91
52653;BME280;39353;42.864;12.014;2022-07-03T18:27:08;97459.59;;;32.02;35.04
52653;BME280;39353;42.864;12.014;2022-07-03T18:33:01;97461.26;;;32.02;34.44
52653;BME280;39353;42.864;12.014;2022-07-03T18:35:30;97456.69;;;32.07;34.59
52653;BME280;39353;42.864;12.014;2022-07-03T18:38:17;97455.33;;;32.08;34.20
52653;BME280;39353;42.864;12.014;2022-07-03T18:41:03;97459.02;;;32.03;34.50
52653;BME280;39353;42.864;12.014;2022-07-03T18:43:31;97459.27;;;32.02;34.33
52653;BME280;39353;42.864;12.014;2022-07-03T18:46:01;97461.98;;;32.01;34.44
52653;BME280;39353;42.864;12.014;2022-07-03T18:48:29;97462.41;;;31.99;34.55
52653;BME280;39353;42.864;12.014;2022-07-03T19:00:32;97474.63;;;31.94;35.15
52653;BME280;39353;42.864;12.014;2022-07-03T19:03:23;97479.34;;;31.95;35.04
52653;BME280;39353;42.864;12.014;2022-07-03T19:09:26;97479.30;;;31.83;35.06
52653;BME280;39353;42.864;12.014;2022-07-03T19:11:56;97482.95;;;31.76;35.35
52653;BME280;39353;42.864;12.014;2022-07-03T19:14:33;97479.39;;;31.77;35.23
52653;BME280;39353;42.864;12.014;2022-07-03T19:17:07;97481.94;;;31.73;35.42
52653;BME280;39353;42.864;12.014;2022-07-03T19:25:44;97503.81;;;31.61;35.25
52653;BME280;39353;42.864;12.014;2022-07-03T19:28:47;97513.91;;;31.56;35.66
52653;BME280;39353;42.864;12.014;2022-07-03T19:31:35;97515.17;;;31.53;35.67
52653;BME280;39353;42.864;12.014;2022-07-03T19:34:03;97515.29;;;31.48;35.56
52653;BME280;39353;42.864;12.014;2022-07-03T19:36:49;97517.58;;;31.42;35.47
52653;BME280;39353;42.864;12.014;2022-07-03T19:39:53;97523.40;;;31.29;36.56
52653;BME280;39353;42.864;12.014;2022-07-03T19:42:40;97533.15;;;31.24;36.48
52653;BME280;39353;42.864;12.014;2022-07-03T19:45:49;97533.90;;;31.21;36.12
52653;BME280;39353;42.864;12.014;2022-07-03T19:48:35;97549.08;;;31.17;35.94
52653;BME280;39353;42.864;12.014;2022-07-03T19:51:39;97553.68;;;31.13;36.14
52653;BME280;39353;42.864;12.014;2022-07-03T19:54:24;97551.13;;;31.14;36.15
52653;BME280;39353;42.864;12.014;2022-07-03T19:56:51;97551.64;;;31.16;36.12
52653;BME280;39353;42.864;12.014;2022-07-03T19:59:37;97553.89;;;31.17;36.08
52653;BME280;39353;42.864;12.014;2022-07-03T20:05:08;97549.62;;;31.17;36.07
52653;BME280;39353;42.864;12.014;2022-07-03T20:10:24;97554.50;;;31.11;36.18
52653;BME280;39353;42.864;12.014;2022-07-03T20:12:52;97553.61;;;31.10;36.52
52653;BME280;39353;42.864;12.014;2022-07-03T20:15:22;97555.70;;;31.07;36.89
52653;BME280;39353;42.864;12.014;2022-07-03T20:18:09;97552.16;;;31.00;38.59
52653;BME280;39353;42.864;12.014;2022-07-03T20:20:54;97560.50;;;30.98;37.37
52653;BME280;39353;42.864;12.014;2022-07-03T20:24:17;97564.63;;;31.00;37.16
52653;BME280;39353;42.864;12.014;2022-07-03T20:30:24;97564.23;;;30.89;37.04
52653;BME280;39353;42.864;12.014;2022-07-03T20:33:10;97566.64;;;30.93;36.74
52653;BME280;39353;42.864;12.014;2022-07-03T20:35:57;97567.68;;;30.93;36.41
52653;BME280;39353;42.864;12.014;2022-07-03T20:39:21;97572.08;;;30.90;36.55
52653;BME280;39353;42.864;12.014;2022-07-03T20:42:10;97577.27;;;30.86;36.54
52653;BME280;39353;42.864;12.014;2022-07-03T20:53:14;97575.67;;;30.86;36.74
52653;BME280;39353;42.864;12.014;2022-07-03T20:55:42;97575.31;;;30.89;37.39
52653;BME280;39353;42.864;12.014;2022-07-03T20:58:09;97576.60;;;30.93;36.32
52653;BME280;39353;42.864;12.014;2022-07-03T21:00:53;97578.02;;;30.96;35.80
52653;BME280;39353;42.864;12.014;2022-07-03T21:03:20;97575.56;;;30.98;36.09
52653;BME280;39353;42.864;12.014;2022-07-03T21:06:06;97580.66;;;30.99;36.35
52653;BME280;39353;42.864;12.014;2022-07-03T21:08:52;97585.75;;;30.99;36.53